»·PEaware :: N973SE KAVX-F70

N973SE :: KAVX-F70

FLIGHT INFORMATION

Flight Status: Arrived
Operator: Privately registered:
United States
More flights under this callsign
Pilot: Stig E. (4778)
Aircraft: CESSNA 310
(C310)
More flights by this aircraft type
Origin: KAVX Catalina
United States
Destination: F70 French Valley
United States
More flights between these airports :: More routes between these airports
Route: PADDR KSNA
File this flight plan on PilotEdge
Remarks:
Altitude:
(Current/Filed)
5,500ft
Speed:
(Current/Filed)
170kts
Departed: 30-Dec-18 11:59 PM
Arrived: 31-Dec-18 12:31 AM
Distance/Time
Traveled:
65nm/0:32
Distance/Time
To Go:
Arrived

Flight Plot

Page will automatically refresh every two minutes.

Flight plan parsing failed; only flown route is shown


Map Options




Map Legend


Flown Route
Filed Route
Departure Airport
Arrival Airport
Navaid (VOR, NDB)
Fix

Horizontal Profiles

Position Reports

Time Latitude Longitude Heading Altitude Ground
Speed
30-Dec-18 23:42 33.403292 -118.415954 45 1579ft 0kts
30-Dec-18 23:43 33.403292 -118.415954 45 1579ft 0kts
30-Dec-18 23:44 33.403292 -118.415954 45 1579ft 0kts
30-Dec-18 23:45 33.403292 -118.415954 45 1579ft 0kts
30-Dec-18 23:46 33.403292 -118.415954 45 1579ft 0kts
30-Dec-18 23:47 33.403292 -118.415954 45 1579ft 0kts
30-Dec-18 23:48 33.403303 -118.415941 45 1579ft 2kts
30-Dec-18 23:49 33.406327 -118.412778 56 1559ft 21kts
30-Dec-18 23:50 33.407156 -118.411409 41 1545ft 0kts
30-Dec-18 23:51 33.407156 -118.411409 41 1545ft 0kts
30-Dec-18 23:52 33.407156 -118.411409 41 1545ft 0kts
30-Dec-18 23:53 33.407156 -118.411409 41 1545ft 0kts
30-Dec-18 23:54 33.407156 -118.411409 41 1545ft 0kts
30-Dec-18 23:55 33.407156 -118.411409 41 1545ft 0kts
30-Dec-18 23:56 33.407156 -118.411409 41 1545ft 0kts
30-Dec-18 23:57 33.407168 -118.411396 42 1545ft 1kts
30-Dec-18 23:58 33.398807 -118.427541 237 1933ft 119kts
30-Dec-18 23:59 33.407513 -118.466698 313 3006ft 159kts
31-Dec-18 00:00 33.443687 -118.471061 39 4020ft 156kts
31-Dec-18 00:01 33.473630 -118.434305 51 5037ft 155kts
31-Dec-18 00:02 33.502279 -118.393634 51 5516ft 172kts
31-Dec-18 00:03 33.533656 -118.348423 51 5511ft 179kts
31-Dec-18 00:04 33.565818 -118.304136 38 5506ft 173kts
31-Dec-18 00:05 33.595217 -118.263775 72 5509ft 166kts
31-Dec-18 00:06 33.606688 -118.210128 74 5509ft 166kts
31-Dec-18 00:07 33.617639 -118.156414 74 5509ft 167kts
31-Dec-18 00:08 33.628646 -118.102210 74 5509ft 167kts
31-Dec-18 00:09 33.639677 -118.047739 73 5509ft 168kts
31-Dec-18 00:10 33.650781 -117.992800 72 5509ft 170kts
31-Dec-18 00:11 33.661919 -117.937555 73 5508ft 169kts
31-Dec-18 00:12 33.673036 -117.882844 74 5508ft 168kts
31-Dec-18 00:13 33.670324 -117.826856 95 5507ft 171kts
31-Dec-18 00:14 33.662762 -117.770574 95 5504ft 171kts
31-Dec-18 00:15 33.655124 -117.713867 95 5501ft 172kts
31-Dec-18 00:16 33.647321 -117.657032 95 5499ft 173kts
31-Dec-18 00:17 33.639699 -117.601146 95 4917ft 166kts
31-Dec-18 00:18 33.632981 -117.551908 94 4962ft 140kts
31-Dec-18 00:19 33.626828 -117.506753 94 4966ft 136kts
31-Dec-18 00:20 33.620704 -117.462026 94 4969ft 136kts
31-Dec-18 00:21 33.614505 -117.416923 94 4971ft 138kts
31-Dec-18 00:22 33.608193 -117.371119 94 4972ft 141kts
31-Dec-18 00:23 33.601148 -117.320132 96 4394ft 166kts
31-Dec-18 00:24 33.593390 -117.264607 97 3709ft 170kts
31-Dec-18 00:25 33.585802 -117.208574 97 3050ft 167kts
31-Dec-18 00:26 33.579343 -117.157093 97 2508ft 143kts
31-Dec-18 00:27 33.573239 -117.115597 117 2051ft 120kts
31-Dec-18 00:28 33.547971 -117.115608 267 1795ft 116kts
31-Dec-18 00:29 33.567037 -117.130380 10 1381ft 97kts
31-Dec-18 00:30 33.574963 -117.129427 316 1353ft 5kts
31-Dec-18 00:31 33.575247 -117.130279 191 1353ft 0kts
31-Dec-18 00:32 33.575247 -117.130279 191 1353ft 0kts

Navigation Log

Ident Type
Flight plan parsing failed, navigation log unavailable